sensor_id;sensor_type;location;lat;lon;timestamp;P1;durP1;ratioP1;P2;durP2;ratioP2
34317;SDS011;20582;52.196;20.952;2022-12-18T00:00:54;51.05;;;21.33;;
34317;SDS011;20582;52.196;20.952;2022-12-18T00:03:20;55.17;;;21.75;;
34317;SDS011;20582;52.196;20.952;2022-12-18T00:05:49;51.72;;;21.50;;
34317;SDS011;20582;52.196;20.952;2022-12-18T00:08:16;53.97;;;22.33;;
34317;SDS011;20582;52.196;20.952;2022-12-18T00:10:43;52.90;;;22.50;;
34317;SDS011;20582;52.196;20.952;2022-12-18T00:13:09;53.13;;;21.30;;
34317;SDS011;20582;52.196;20.952;2022-12-18T00:15:36;57.97;;;23.58;;
34317;SDS011;20582;52.196;20.952;2022-12-18T00:18:02;54.22;;;22.15;;
34317;SDS011;20582;52.196;20.952;2022-12-18T00:20:28;53.88;;;21.52;;
34317;SDS011;20582;52.196;20.952;2022-12-18T00:22:54;53.15;;;21.50;;
34317;SDS011;20582;52.196;20.952;2022-12-18T00:25:20;52.35;;;21.85;;
34317;SDS011;20582;52.196;20.952;2022-12-18T00:27:46;53.53;;;21.17;;
34317;SDS011;20582;52.196;20.952;2022-12-18T00:30:12;50.55;;;21.27;;
34317;SDS011;20582;52.196;20.952;2022-12-18T00:32:38;51.08;;;21.50;;
34317;SDS011;20582;52.196;20.952;2022-12-18T00:35:05;52.35;;;21.15;;
34317;SDS011;20582;52.196;20.952;2022-12-18T00:37:31;55.13;;;20.85;;
34317;SDS011;20582;52.196;20.952;2022-12-18T00:39:58;57.10;;;21.77;;
34317;SDS011;20582;52.196;20.952;2022-12-18T00:42:24;49.45;;;21.13;;
34317;SDS011;20582;52.196;20.952;2022-12-18T00:45:09;54.22;;;20.90;;
34317;SDS011;20582;52.196;20.952;2022-12-18T00:47:35;52.28;;;20.90;;
34317;SDS011;20582;52.196;20.952;2022-12-18T00:50:01;49.38;;;20.00;;
34317;SDS011;20582;52.196;20.952;2022-12-18T00:52:27;54.17;;;21.98;;
34317;SDS011;20582;52.196;20.952;2022-12-18T00:54:53;52.47;;;21.67;;
34317;SDS011;20582;52.196;20.952;2022-12-18T00:57:19;52.40;;;20.23;;
34317;SDS011;20582;52.196;20.952;2022-12-18T00:59:45;50.85;;;20.33;;
34317;SDS011;20582;52.196;20.952;2022-12-18T01:02:14;55.33;;;22.33;;
34317;SDS011;20582;52.196;20.952;2022-12-18T01:04:40;56.20;;;20.50;;
34317;SDS011;20582;52.196;20.952;2022-12-18T01:07:06;56.58;;;21.92;;
34317;SDS011;20582;52.196;20.952;2022-12-18T01:09:32;50.58;;;20.20;;
34317;SDS011;20582;52.196;20.952;2022-12-18T01:11:59;53.35;;;21.38;;
34317;SDS011;20582;52.196;20.952;2022-12-18T01:14:25;51.53;;;21.77;;
34317;SDS011;20582;52.196;20.952;2022-12-18T01:16:51;51.10;;;19.30;;
34317;SDS011;20582;52.196;20.952;2022-12-18T01:19:17;57.30;;;20.42;;
34317;SDS011;20582;52.196;20.952;2022-12-18T01:21:43;57.70;;;21.52;;
34317;SDS011;20582;52.196;20.952;2022-12-18T01:24:09;55.75;;;21.73;;
34317;SDS011;20582;52.196;20.952;2022-12-18T01:26:37;58.38;;;20.63;;
34317;SDS011;20582;52.196;20.952;2022-12-18T01:29:03;51.58;;;20.13;;
34317;SDS011;20582;52.196;20.952;2022-12-18T01:31:30;57.75;;;21.17;;
34317;SDS011;20582;52.196;20.952;2022-12-18T01:33:56;55.30;;;20.27;;
34317;SDS011;20582;52.196;20.952;2022-12-18T01:36:23;55.70;;;18.77;;
34317;SDS011;20582;52.196;20.952;2022-12-18T01:38:50;49.10;;;19.35;;
34317;SDS011;20582;52.196;20.952;2022-12-18T01:41:17;55.47;;;20.98;;
34317;SDS011;20582;52.196;20.952;2022-12-18T01:43:48;56.20;;;19.17;;
34317;SDS011;20582;52.196;20.952;2022-12-18T01:46:16;48.50;;;19.30;;
34317;SDS011;20582;52.196;20.952;2022-12-18T01:48:42;50.78;;;19.20;;
34317;SDS011;20582;52.196;20.952;2022-12-18T01:51:09;53.40;;;19.48;;
34317;SDS011;20582;52.196;20.952;2022-12-18T01:53:36;54.80;;;19.70;;
34317;SDS011;20582;52.196;20.952;2022-12-18T01:56:02;56.50;;;20.42;;
34317;SDS011;20582;52.196;20.952;2022-12-18T02:00:55;62.35;;;20.67;;
34317;SDS011;20582;52.196;20.952;2022-12-18T02:03:20;53.92;;;18.98;;
34317;SDS011;20582;52.196;20.952;2022-12-18T02:05:48;50.65;;;18.25;;
34317;SDS011;20582;52.196;20.952;2022-12-18T02:08:22;53.28;;;20.35;;
34317;SDS011;20582;52.196;20.952;2022-12-18T02:13:25;54.35;;;20.52;;
34317;SDS011;20582;52.196;20.952;2022-12-18T02:18:59;50.25;;;18.88;;
34317;SDS011;20582;52.196;20.952;2022-12-18T02:24:10;52.22;;;19.23;;
34317;SDS011;20582;52.196;20.952;2022-12-18T02:26:50;44.03;;;16.15;;
34317;SDS011;20582;52.196;20.952;2022-12-18T02:29:24;53.40;;;18.05;;
34317;SDS011;20582;52.196;20.952;2022-12-18T02:31:56;54.30;;;20.25;;
34317;SDS011;20582;52.196;20.952;2022-12-18T02:34:23;56.60;;;19.83;;
34317;SDS011;20582;52.196;20.952;2022-12-18T02:36:49;55.42;;;20.15;;
34317;SDS011;20582;52.196;20.952;2022-12-18T02:39:15;57.35;;;20.02;;
34317;SDS011;20582;52.196;20.952;2022-12-18T02:41:41;56.22;;;19.95;;
34317;SDS011;20582;52.196;20.952;2022-12-18T02:44:09;57.22;;;19.52;;
34317;SDS011;20582;52.196;20.952;2022-12-18T02:46:36;55.55;;;20.25;;
34317;SDS011;20582;52.196;20.952;2022-12-18T02:49:12;54.53;;;18.88;;
34317;SDS011;20582;52.196;20.952;2022-12-18T02:51:45;55.67;;;20.55;;
34317;SDS011;20582;52.196;20.952;2022-12-18T02:54:18;56.95;;;19.77;;
34317;SDS011;20582;52.196;20.952;2022-12-18T02:56:48;57.83;;;20.38;;
34317;SDS011;20582;52.196;20.952;2022-12-18T02:59:17;61.00;;;20.63;;
34317;SDS011;20582;52.196;20.952;2022-12-18T03:02:05;55.17;;;21.65;;
34317;SDS011;20582;52.196;20.952;2022-12-18T03:04:34;52.35;;;20.02;;
34317;SDS011;20582;52.196;20.952;2022-12-18T03:07:07;56.13;;;21.33;;
34317;SDS011;20582;52.196;20.952;2022-12-18T03:09:35;58.22;;;20.67;;
34317;SDS011;20582;52.196;20.952;2022-12-18T03:14:58;57.67;;;21.30;;
34317;SDS011;20582;52.196;20.952;2022-12-18T03:17:26;61.17;;;19.88;;
34317;SDS011;20582;52.196;20.952;2022-12-18T03:19:53;57.33;;;20.77;;
34317;SDS011;20582;52.196;20.952;2022-12-18T03:22:22;56.45;;;19.90;;
34317;SDS011;20582;52.196;20.952;2022-12-18T03:24:49;60.53;;;21.48;;
34317;SDS011;20582;52.196;20.952;2022-12-18T03:27:15;56.60;;;20.65;;
34317;SDS011;20582;52.196;20.952;2022-12-18T03:29:48;55.65;;;20.48;;
34317;SDS011;20582;52.196;20.952;2022-12-18T03:32:16;55.35;;;20.25;;
34317;SDS011;20582;52.196;20.952;2022-12-18T03:34:44;56.47;;;19.10;;
34317;SDS011;20582;52.196;20.952;2022-12-18T03:37:12;58.05;;;21.48;;
34317;SDS011;20582;52.196;20.952;2022-12-18T03:39:38;54.22;;;19.05;;
34317;SDS011;20582;52.196;20.952;2022-12-18T03:42:14;54.38;;;20.10;;
34317;SDS011;20582;52.196;20.952;2022-12-18T03:47:14;57.75;;;20.42;;
34317;SDS011;20582;52.196;20.952;2022-12-18T03:49:49;56.85;;;21.15;;
34317;SDS011;20582;52.196;20.952;2022-12-18T03:52:30;62.20;;;21.65;;
34317;SDS011;20582;52.196;20.952;2022-12-18T03:54:58;56.08;;;20.80;;
34317;SDS011;20582;52.196;20.952;2022-12-18T03:57:26;50.60;;;19.77;;
34317;SDS011;20582;52.196;20.952;2022-12-18T03:59:56;55.28;;;21.30;;
34317;SDS011;20582;52.196;20.952;2022-12-18T04:02:23;57.00;;;21.73;;
34317;SDS011;20582;52.196;20.952;2022-12-18T04:04:51;57.28;;;20.77;;
34317;SDS011;20582;52.196;20.952;2022-12-18T04:07:18;56.33;;;21.05;;
34317;SDS011;20582;52.196;20.952;2022-12-18T04:09:44;55.88;;;19.58;;
34317;SDS011;20582;52.196;20.952;2022-12-18T04:12:11;58.63;;;21.02;;
34317;SDS011;20582;52.196;20.952;2022-12-18T04:14:37;58.10;;;21.08;;
34317;SDS011;20582;52.196;20.952;2022-12-18T04:17:03;52.40;;;20.10;;
34317;SDS011;20582;52.196;20.952;2022-12-18T04:19:29;58.08;;;19.00;;
34317;SDS011;20582;52.196;20.952;2022-12-18T04:21:55;59.97;;;21.33;;
34317;SDS011;20582;52.196;20.952;2022-12-18T04:24:21;51.22;;;19.15;;
34317;SDS011;20582;52.196;20.952;2022-12-18T04:26:47;52.17;;;20.58;;
34317;SDS011;20582;52.196;20.952;2022-12-18T04:29:13;51.92;;;20.60;;
34317;SDS011;20582;52.196;20.952;2022-12-18T04:31:39;59.58;;;19.17;;
34317;SDS011;20582;52.196;20.952;2022-12-18T04:34:05;52.28;;;19.38;;
34317;SDS011;20582;52.196;20.952;2022-12-18T04:36:31;52.10;;;21.05;;
34317;SDS011;20582;52.196;20.952;2022-12-18T04:38:57;60.60;;;21.05;;
34317;SDS011;20582;52.196;20.952;2022-12-18T04:41:22;55.22;;;21.48;;
34317;SDS011;20582;52.196;20.952;2022-12-18T04:43:48;56.28;;;20.10;;
34317;SDS011;20582;52.196;20.952;2022-12-18T04:46:14;60.53;;;21.75;;
34317;SDS011;20582;52.196;20.952;2022-12-18T04:48:40;51.10;;;19.92;;
34317;SDS011;20582;52.196;20.952;2022-12-18T04:51:06;60.13;;;19.65;;
34317;SDS011;20582;52.196;20.952;2022-12-18T04:53:32;49.05;;;18.35;;
34317;SDS011;20582;52.196;20.952;2022-12-18T04:56:03;56.72;;;21.67;;
34317;SDS011;20582;52.196;20.952;2022-12-18T04:58:29;56.80;;;19.25;;
34317;SDS011;20582;52.196;20.952;2022-12-18T05:00:55;51.83;;;19.40;;
34317;SDS011;20582;52.196;20.952;2022-12-18T05:03:21;57.95;;;20.02;;
34317;SDS011;20582;52.196;20.952;2022-12-18T05:05:50;60.83;;;21.73;;
34317;SDS011;20582;52.196;20.952;2022-12-18T05:08:16;58.50;;;19.90;;
34317;SDS011;20582;52.196;20.952;2022-12-18T05:10:43;55.72;;;19.92;;
34317;SDS011;20582;52.196;20.952;2022-12-18T05:13:09;53.13;;;21.10;;
34317;SDS011;20582;52.196;20.952;2022-12-18T05:15:34;53.75;;;19.25;;
34317;SDS011;20582;52.196;20.952;2022-12-18T05:18:00;60.22;;;20.85;;
34317;SDS011;20582;52.196;20.952;2022-12-18T05:20:27;55.03;;;19.63;;
34317;SDS011;20582;52.196;20.952;2022-12-18T05:22:53;52.90;;;19.55;;
34317;SDS011;20582;52.196;20.952;2022-12-18T05:25:19;58.55;;;19.70;;
34317;SDS011;20582;52.196;20.952;2022-12-18T05:27:46;56.38;;;19.52;;
34317;SDS011;20582;52.196;20.952;2022-12-18T05:30:12;60.90;;;20.33;;
34317;SDS011;20582;52.196;20.952;2022-12-18T05:32:38;53.25;;;18.80;;
34317;SDS011;20582;52.196;20.952;2022-12-18T05:35:05;60.60;;;20.65;;
34317;SDS011;20582;52.196;20.952;2022-12-18T05:37:31;55.30;;;20.10;;
34317;SDS011;20582;52.196;20.952;2022-12-18T05:39:57;61.28;;;21.60;;
34317;SDS011;20582;52.196;20.952;2022-12-18T05:42:23;54.10;;;19.58;;
34317;SDS011;20582;52.196;20.952;2022-12-18T05:44:49;64.65;;;21.45;;
34317;SDS011;20582;52.196;20.952;2022-12-18T05:47:15;60.28;;;20.65;;
34317;SDS011;20582;52.196;20.952;2022-12-18T05:49:41;64.70;;;22.55;;
34317;SDS011;20582;52.196;20.952;2022-12-18T05:52:07;73.45;;;23.20;;
34317;SDS011;20582;52.196;20.952;2022-12-18T05:54:33;68.70;;;23.40;;
34317;SDS011;20582;52.196;20.952;2022-12-18T05:56:59;68.05;;;22.55;;
34317;SDS011;20582;52.196;20.952;2022-12-18T05:59:25;55.15;;;20.08;;
34317;SDS011;20582;52.196;20.952;2022-12-18T06:01:51;65.35;;;22.35;;
34317;SDS011;20582;52.196;20.952;2022-12-18T06:04:17;65.43;;;23.25;;
34317;SDS011;20582;52.196;20.952;2022-12-18T06:06:43;59.05;;;22.00;;
34317;SDS011;20582;52.196;20.952;2022-12-18T06:09:09;62.70;;;21.05;;
34317;SDS011;20582;52.196;20.952;2022-12-18T06:11:36;65.00;;;21.95;;
34317;SDS011;20582;52.196;20.952;2022-12-18T06:14:03;65.15;;;22.85;;
34317;SDS011;20582;52.196;20.952;2022-12-18T06:16:29;58.47;;;21.52;;
34317;SDS011;20582;52.196;20.952;2022-12-18T06:18:59;60.97;;;22.70;;
34317;SDS011;20582;52.196;20.952;2022-12-18T06:21:25;63.97;;;21.52;;
34317;SDS011;20582;52.196;20.952;2022-12-18T06:23:51;68.85;;;23.23;;
34317;SDS011;20582;52.196;20.952;2022-12-18T06:26:17;68.18;;;21.25;;
34317;SDS011;20582;52.196;20.952;2022-12-18T06:28:43;67.13;;;23.20;;
34317;SDS011;20582;52.196;20.952;2022-12-18T06:31:09;68.20;;;22.17;;
34317;SDS011;20582;52.196;20.952;2022-12-18T06:33:36;65.32;;;23.20;;
34317;SDS011;20582;52.196;20.952;2022-12-18T06:36:10;65.20;;;22.00;;
34317;SDS011;20582;52.196;20.952;2022-12-18T06:38:36;72.13;;;23.13;;
34317;SDS011;20582;52.196;20.952;2022-12-18T06:43:34;64.10;;;22.17;;
34317;SDS011;20582;52.196;20.952;2022-12-18T06:46:01;64.13;;;20.67;;
34317;SDS011;20582;52.196;20.952;2022-12-18T06:48:27;60.10;;;21.63;;
34317;SDS011;20582;52.196;20.952;2022-12-18T06:50:53;59.85;;;21.33;;
34317;SDS011;20582;52.196;20.952;2022-12-18T06:53:20;64.60;;;22.10;;
34317;SDS011;20582;52.196;20.952;2022-12-18T06:55:46;68.35;;;21.92;;
34317;SDS011;20582;52.196;20.952;2022-12-18T06:58:12;67.68;;;23.42;;
34317;SDS011;20582;52.196;20.952;2022-12-18T07:00:38;70.97;;;22.83;;
34317;SDS011;20582;52.196;20.952;2022-12-18T07:03:04;64.00;;;21.35;;
34317;SDS011;20582;52.196;20.952;2022-12-18T07:05:29;63.80;;;22.27;;
34317;SDS011;20582;52.196;20.952;2022-12-18T07:07:56;71.30;;;23.38;;
34317;SDS011;20582;52.196;20.952;2022-12-18T07:10:21;68.57;;;23.55;;
34317;SDS011;20582;52.196;20.952;2022-12-18T07:12:47;65.10;;;23.33;;
34317;SDS011;20582;52.196;20.952;2022-12-18T07:15:13;74.32;;;24.27;;
34317;SDS011;20582;52.196;20.952;2022-12-18T07:17:39;66.57;;;23.23;;
34317;SDS011;20582;52.196;20.952;2022-12-18T07:20:05;77.00;;;22.35;;
34317;SDS011;20582;52.196;20.952;2022-12-18T07:22:31;70.10;;;23.27;;
34317;SDS011;20582;52.196;20.952;2022-12-18T07:24:57;62.90;;;24.00;;
34317;SDS011;20582;52.196;20.952;2022-12-18T07:27:23;70.13;;;23.70;;
34317;SDS011;20582;52.196;20.952;2022-12-18T07:29:49;69.60;;;23.90;;
34317;SDS011;20582;52.196;20.952;2022-12-18T07:32:15;78.13;;;24.65;;
34317;SDS011;20582;52.196;20.952;2022-12-18T07:34:41;72.05;;;23.48;;
34317;SDS011;20582;52.196;20.952;2022-12-18T07:37:07;74.03;;;24.73;;
34317;SDS011;20582;52.196;20.952;2022-12-18T07:39:33;75.32;;;24.35;;
34317;SDS011;20582;52.196;20.952;2022-12-18T07:41:59;64.80;;;22.15;;
34317;SDS011;20582;52.196;20.952;2022-12-18T07:44:44;66.68;;;23.13;;
34317;SDS011;20582;52.196;20.952;2022-12-18T07:47:10;70.18;;;23.52;;
34317;SDS011;20582;52.196;20.952;2022-12-18T07:49:36;66.22;;;23.55;;
34317;SDS011;20582;52.196;20.952;2022-12-18T07:52:02;64.57;;;23.52;;
34317;SDS011;20582;52.196;20.952;2022-12-18T07:54:28;70.30;;;23.60;;
34317;SDS011;20582;52.196;20.952;2022-12-18T07:56:55;73.78;;;23.73;;
34317;SDS011;20582;52.196;20.952;2022-12-18T07:59:21;67.50;;;23.48;;
34317;SDS011;20582;52.196;20.952;2022-12-18T08:01:47;65.82;;;22.13;;
34317;SDS011;20582;52.196;20.952;2022-12-18T08:04:13;66.78;;;22.05;;
34317;SDS011;20582;52.196;20.952;2022-12-18T08:06:39;73.22;;;23.33;;
34317;SDS011;20582;52.196;20.952;2022-12-18T08:09:05;59.50;;;21.25;;
34317;SDS011;20582;52.196;20.952;2022-12-18T08:11:32;65.10;;;23.00;;
34317;SDS011;20582;52.196;20.952;2022-12-18T08:13:58;70.35;;;22.52;;
34317;SDS011;20582;52.196;20.952;2022-12-18T08:16:24;65.18;;;23.33;;
34317;SDS011;20582;52.196;20.952;2022-12-18T08:18:51;65.38;;;22.77;;
34317;SDS011;20582;52.196;20.952;2022-12-18T08:21:19;63.25;;;22.10;;
34317;SDS011;20582;52.196;20.952;2022-12-18T08:23:46;67.88;;;22.55;;
34317;SDS011;20582;52.196;20.952;2022-12-18T08:26:13;64.68;;;21.83;;
34317;SDS011;20582;52.196;20.952;2022-12-18T08:28:39;65.97;;;23.05;;
34317;SDS011;20582;52.196;20.952;2022-12-18T08:31:06;66.30;;;23.75;;
34317;SDS011;20582;52.196;20.952;2022-12-18T08:33:32;67.35;;;23.27;;
34317;SDS011;20582;52.196;20.952;2022-12-18T08:35:59;68.38;;;25.02;;
34317;SDS011;20582;52.196;20.952;2022-12-18T08:38:25;70.95;;;23.40;;
34317;SDS011;20582;52.196;20.952;2022-12-18T08:41:10;63.35;;;23.73;;
34317;SDS011;20582;52.196;20.952;2022-12-18T08:43:36;73.40;;;24.75;;
34317;SDS011;20582;52.196;20.952;2022-12-18T08:46:21;70.10;;;24.55;;
34317;SDS011;20582;52.196;20.952;2022-12-18T08:48:49;68.15;;;26.27;;
34317;SDS011;20582;52.196;20.952;2022-12-18T08:51:15;70.25;;;24.83;;
34317;SDS011;20582;52.196;20.952;2022-12-18T08:53:42;70.95;;;25.27;;
34317;SDS011;20582;52.196;20.952;2022-12-18T08:56:09;75.72;;;26.55;;
34317;SDS011;20582;52.196;20.952;2022-12-18T08:58:35;71.88;;;27.17;;
34317;SDS011;20582;52.196;20.952;2022-12-18T09:01:02;70.95;;;25.95;;
34317;SDS011;20582;52.196;20.952;2022-12-18T09:03:28;71.25;;;24.75;;
34317;SDS011;20582;52.196;20.952;2022-12-18T09:05:54;71.38;;;26.65;;
34317;SDS011;20582;52.196;20.952;2022-12-18T09:08:20;73.47;;;28.30;;
34317;SDS011;20582;52.196;20.952;2022-12-18T09:10:47;72.97;;;27.90;;
34317;SDS011;20582;52.196;20.952;2022-12-18T09:13:14;74.70;;;26.75;;
34317;SDS011;20582;52.196;20.952;2022-12-18T09:15:53;73.07;;;27.35;;
34317;SDS011;20582;52.196;20.952;2022-12-18T09:18:20;72.97;;;29.35;;
34317;SDS011;20582;52.196;20.952;2022-12-18T09:20:47;75.10;;;29.33;;
34317;SDS011;20582;52.196;20.952;2022-12-18T09:23:13;75.05;;;30.38;;
34317;SDS011;20582;52.196;20.952;2022-12-18T09:25:39;74.22;;;27.77;;
34317;SDS011;20582;52.196;20.952;2022-12-18T09:28:09;70.65;;;27.73;;
34317;SDS011;20582;52.196;20.952;2022-12-18T09:30:39;72.10;;;27.00;;
34317;SDS011;20582;52.196;20.952;2022-12-18T09:33:05;71.95;;;26.52;;
34317;SDS011;20582;52.196;20.952;2022-12-18T09:35:31;77.45;;;28.65;;
34317;SDS011;20582;52.196;20.952;2022-12-18T09:37:57;78.50;;;29.77;;
34317;SDS011;20582;52.196;20.952;2022-12-18T09:40:24;86.50;;;32.47;;
34317;SDS011;20582;52.196;20.952;2022-12-18T09:42:55;84.43;;;30.77;;
34317;SDS011;20582;52.196;20.952;2022-12-18T09:45:22;76.47;;;29.00;;
34317;SDS011;20582;52.196;20.952;2022-12-18T09:47:49;79.32;;;29.58;;
34317;SDS011;20582;52.196;20.952;2022-12-18T09:50:32;84.57;;;30.00;;
34317;SDS011;20582;52.196;20.952;2022-12-18T09:53:02;86.25;;;30.20;;
34317;SDS011;20582;52.196;20.952;2022-12-18T09:55:34;89.38;;;29.33;;
34317;SDS011;20582;52.196;20.952;2022-12-18T09:58:16;99.38;;;36.50;;
34317;SDS011;20582;52.196;20.952;2022-12-18T10:00:44;85.80;;;30.65;;
34317;SDS011;20582;52.196;20.952;2022-12-18T10:03:12;79.63;;;31.23;;
34317;SDS011;20582;52.196;20.952;2022-12-18T10:08:17;91.70;;;30.13;;
34317;SDS011;20582;52.196;20.952;2022-12-18T10:10:53;84.00;;;29.67;;
34317;SDS011;20582;52.196;20.952;2022-12-18T10:13:37;88.68;;;29.75;;
34317;SDS011;20582;52.196;20.952;2022-12-18T10:16:12;94.05;;;32.58;;
34317;SDS011;20582;52.196;20.952;2022-12-18T10:18:50;98.95;;;33.55;;
34317;SDS011;20582;52.196;20.952;2022-12-18T10:21:25;88.55;;;29.65;;
34317;SDS011;20582;52.196;20.952;2022-12-18T10:23:57;89.15;;;31.05;;
34317;SDS011;20582;52.196;20.952;2022-12-18T10:26:25;89.65;;;30.63;;
34317;SDS011;20582;52.196;20.952;2022-12-18T10:28:51;102.00;;;34.20;;
34317;SDS011;20582;52.196;20.952;2022-12-18T10:31:21;86.50;;;30.88;;
34317;SDS011;20582;52.196;20.952;2022-12-18T10:33:48;89.22;;;29.75;;
34317;SDS011;20582;52.196;20.952;2022-12-18T10:36:14;81.47;;;29.20;;
34317;SDS011;20582;52.196;20.952;2022-12-18T10:38:40;81.50;;;30.77;;
34317;SDS011;20582;52.196;20.952;2022-12-18T10:43:37;86.40;;;30.13;;
34317;SDS011;20582;52.196;20.952;2022-12-18T10:48:36;88.55;;;31.27;;
34317;SDS011;20582;52.196;20.952;2022-12-18T10:51:05;86.37;;;31.40;;
34317;SDS011;20582;52.196;20.952;2022-12-18T10:53:32;89.03;;;30.80;;
34317;SDS011;20582;52.196;20.952;2022-12-18T10:55:59;91.10;;;32.55;;
34317;SDS011;20582;52.196;20.952;2022-12-18T10:58:26;94.60;;;32.50;;
34317;SDS011;20582;52.196;20.952;2022-12-18T11:03:29;89.53;;;33.50;;
34317;SDS011;20582;52.196;20.952;2022-12-18T11:06:03;88.20;;;32.35;;
34317;SDS011;20582;52.196;20.952;2022-12-18T11:08:29;91.93;;;32.97;;
34317;SDS011;20582;52.196;20.952;2022-12-18T11:10:55;91.28;;;31.98;;
34317;SDS011;20582;52.196;20.952;2022-12-18T11:13:22;87.07;;;33.35;;
34317;SDS011;20582;52.196;20.952;2022-12-18T11:15:49;93.45;;;34.03;;
34317;SDS011;20582;52.196;20.952;2022-12-18T11:18:28;94.63;;;31.83;;
34317;SDS011;20582;52.196;20.952;2022-12-18T11:20:55;89.50;;;33.92;;
34317;SDS011;20582;52.196;20.952;2022-12-18T11:23:22;90.43;;;31.95;;
34317;SDS011;20582;52.196;20.952;2022-12-18T11:25:53;92.45;;;31.30;;
34317;SDS011;20582;52.196;20.952;2022-12-18T11:28:27;84.70;;;31.30;;
34317;SDS011;20582;52.196;20.952;2022-12-18T11:33:35;89.95;;;32.00;;
34317;SDS011;20582;52.196;20.952;2022-12-18T11:36:03;83.55;;;31.00;;
34317;SDS011;20582;52.196;20.952;2022-12-18T11:43:29;78.10;;;29.92;;
34317;SDS011;20582;52.196;20.952;2022-12-18T11:46:10;98.57;;;33.78;;
34317;SDS011;20582;52.196;20.952;2022-12-18T11:48:38;91.30;;;33.70;;
34317;SDS011;20582;52.196;20.952;2022-12-18T11:51:09;86.83;;;32.57;;
34317;SDS011;20582;52.196;20.952;2022-12-18T11:53:36;84.80;;;33.50;;
34317;SDS011;20582;52.196;20.952;2022-12-18T12:01:36;90.82;;;34.40;;
34317;SDS011;20582;52.196;20.952;2022-12-18T12:04:22;84.93;;;31.83;;
34317;SDS011;20582;52.196;20.952;2022-12-18T12:09:47;81.30;;;31.92;;
34317;SDS011;20582;52.196;20.952;2022-12-18T12:12:23;79.47;;;32.63;;
34317;SDS011;20582;52.196;20.952;2022-12-18T12:19:58;89.97;;;35.30;;
34317;SDS011;20582;52.196;20.952;2022-12-18T12:22:44;79.60;;;32.58;;
34317;SDS011;20582;52.196;20.952;2022-12-18T12:25:19;74.22;;;29.98;;
34317;SDS011;20582;52.196;20.952;2022-12-18T12:38:08;91.25;;;33.45;;
34317;SDS011;20582;52.196;20.952;2022-12-18T12:40:36;85.22;;;33.00;;
34317;SDS011;20582;52.196;20.952;2022-12-18T12:43:07;84.78;;;30.33;;
34317;SDS011;20582;52.196;20.952;2022-12-18T12:45:44;81.15;;;30.65;;
34317;SDS011;20582;52.196;20.952;2022-12-18T12:51:02;75.53;;;30.55;;
34317;SDS011;20582;52.196;20.952;2022-12-18T12:53:30;94.43;;;34.83;;
34317;SDS011;20582;52.196;20.952;2022-12-18T12:55:58;86.47;;;33.92;;
34317;SDS011;20582;52.196;20.952;2022-12-18T12:58:36;91.05;;;34.80;;
34317;SDS011;20582;52.196;20.952;2022-12-18T13:01:09;83.05;;;32.30;;
34317;SDS011;20582;52.196;20.952;2022-12-18T13:03:43;86.82;;;30.30;;
34317;SDS011;20582;52.196;20.952;2022-12-18T13:06:16;81.38;;;29.23;;
34317;SDS011;20582;52.196;20.952;2022-12-18T13:08:53;78.05;;;28.85;;
34317;SDS011;20582;52.196;20.952;2022-12-18T13:11:30;83.60;;;29.05;;
34317;SDS011;20582;52.196;20.952;2022-12-18T13:14:22;84.18;;;28.02;;
34317;SDS011;20582;52.196;20.952;2022-12-18T13:16:49;83.63;;;28.42;;
34317;SDS011;20582;52.196;20.952;2022-12-18T13:19:21;84.85;;;29.35;;
34317;SDS011;20582;52.196;20.952;2022-12-18T13:21:52;79.95;;;28.05;;
34317;SDS011;20582;52.196;20.952;2022-12-18T13:24:26;89.65;;;28.65;;
34317;SDS011;20582;52.196;20.952;2022-12-18T13:26:53;82.13;;;30.67;;
34317;SDS011;20582;52.196;20.952;2022-12-18T13:32:10;89.65;;;31.90;;
34317;SDS011;20582;52.196;20.952;2022-12-18T13:34:44;88.57;;;31.42;;
34317;SDS011;20582;52.196;20.952;2022-12-18T13:39:55;99.55;;;35.05;;
34317;SDS011;20582;52.196;20.952;2022-12-18T13:42:37;95.60;;;32.65;;
34317;SDS011;20582;52.196;20.952;2022-12-18T13:45:44;94.78;;;33.80;;
34317;SDS011;20582;52.196;20.952;2022-12-18T13:48:21;86.40;;;32.72;;
34317;SDS011;20582;52.196;20.952;2022-12-18T13:50:55;91.53;;;30.98;;
34317;SDS011;20582;52.196;20.952;2022-12-18T13:53:43;92.78;;;30.92;;
34317;SDS011;20582;52.196;20.952;2022-12-18T13:56:08;98.15;;;32.92;;
34317;SDS011;20582;52.196;20.952;2022-12-18T13:58:34;99.22;;;32.50;;
34317;SDS011;20582;52.196;20.952;2022-12-18T14:01:00;92.55;;;31.58;;
34317;SDS011;20582;52.196;20.952;2022-12-18T14:03:29;90.10;;;33.97;;
34317;SDS011;20582;52.196;20.952;2022-12-18T14:05:56;84.68;;;31.42;;
34317;SDS011;20582;52.196;20.952;2022-12-18T14:08:24;93.60;;;31.35;;
34317;SDS011;20582;52.196;20.952;2022-12-18T14:10:52;90.47;;;33.08;;
34317;SDS011;20582;52.196;20.952;2022-12-18T14:13:29;90.88;;;31.85;;
34317;SDS011;20582;52.196;20.952;2022-12-18T14:15:55;90.18;;;33.17;;
34317;SDS011;20582;52.196;20.952;2022-12-18T14:18:26;87.18;;;31.42;;
34317;SDS011;20582;52.196;20.952;2022-12-18T14:20:54;96.53;;;33.40;;
34317;SDS011;20582;52.196;20.952;2022-12-18T14:26:19;96.50;;;34.20;;
34317;SDS011;20582;52.196;20.952;2022-12-18T14:31:18;95.00;;;32.45;;
34317;SDS011;20582;52.196;20.952;2022-12-18T14:33:44;85.32;;;31.90;;
34317;SDS011;20582;52.196;20.952;2022-12-18T14:36:18;91.95;;;32.17;;
34317;SDS011;20582;52.196;20.952;2022-12-18T14:38:47;103.07;;;35.17;;
34317;SDS011;20582;52.196;20.952;2022-12-18T14:41:14;91.35;;;32.13;;
34317;SDS011;20582;52.196;20.952;2022-12-18T14:43:42;84.43;;;30.63;;
34317;SDS011;20582;52.196;20.952;2022-12-18T14:46:27;83.32;;;31.58;;
34317;SDS011;20582;52.196;20.952;2022-12-18T14:48:54;78.95;;;28.30;;
34317;SDS011;20582;52.196;20.952;2022-12-18T14:51:21;87.32;;;30.00;;
34317;SDS011;20582;52.196;20.952;2022-12-18T14:53:58;82.40;;;29.80;;
34317;SDS011;20582;52.196;20.952;2022-12-18T14:56:32;88.82;;;31.02;;
34317;SDS011;20582;52.196;20.952;2022-12-18T14:59:00;85.18;;;28.58;;
34317;SDS011;20582;52.196;20.952;2022-12-18T15:01:35;83.97;;;31.85;;
34317;SDS011;20582;52.196;20.952;2022-12-18T15:04:02;84.20;;;30.08;;
34317;SDS011;20582;52.196;20.952;2022-12-18T15:06:33;83.97;;;30.10;;
34317;SDS011;20582;52.196;20.952;2022-12-18T15:08:59;85.15;;;29.88;;
34317;SDS011;20582;52.196;20.952;2022-12-18T15:11:43;84.80;;;31.95;;
34317;SDS011;20582;52.196;20.952;2022-12-18T15:16:54;86.65;;;30.85;;
34317;SDS011;20582;52.196;20.952;2022-12-18T15:19:21;86.20;;;30.60;;
34317;SDS011;20582;52.196;20.952;2022-12-18T15:21:48;91.97;;;33.85;;
34317;SDS011;20582;52.196;20.952;2022-12-18T15:24:18;84.30;;;30.67;;
34317;SDS011;20582;52.196;20.952;2022-12-18T15:26:44;81.32;;;30.30;;
34317;SDS011;20582;52.196;20.952;2022-12-18T15:29:22;79.85;;;30.27;;
34317;SDS011;20582;52.196;20.952;2022-12-18T15:32:02;84.30;;;31.92;;
34317;SDS011;20582;52.196;20.952;2022-12-18T15:34:28;84.47;;;31.00;;